Time;durP1;ratioP1;P1;durP2;ratioP2;P2;SDS_P1;SDS_P2;PMS_P1;PMS_P2;Temp;Humidity;BMP_temperature;BMP_pressure;BME280_temperature;BME280_humidity;BME280_pressure;Samples;Min_cycle;Max_cycle;Signal;HPM_P1;HPM_P2
2023/08/25 00:00:46;;;;;;;5.10;2.50;;;19.90;99.90;;;;;;5047223;28;20342;-71
2023/08/25 00:03:12;;;;;;;4.20;3.33;;;19.90;99.90;;;;;;5048048;28;20412;-71
2023/08/25 00:05:39;;;;;;;3.43;2.80;;;20.00;99.90;;;;;;5063276;28;20546;-71
2023/08/25 00:08:05;;;;;;;6.67;2.40;;;20.00;99.90;;;;;;5047346;28;20859;-71
2023/08/25 00:10:32;;;;;;;2.93;2.63;;;19.90;99.90;;;;;;5047436;28;20454;-71
2023/08/25 00:12:58;;;;;;;2.57;2.37;;;19.90;99.90;;;;;;5048059;28;20499;-71
2023/08/25 00:15:24;;;;;;;4.50;2.70;;;20.00;99.90;;;;;;5046071;28;20622;-71
2023/08/25 00:17:50;;;;;;;3.33;2.70;;;20.00;99.90;;;;;;5046270;28;20189;-71
2023/08/25 00:20:16;;;;;;;4.77;2.67;;;20.00;99.90;;;;;;5048627;28;20174;-71
2023/08/25 00:22:42;;;;;;;4.07;2.83;;;19.90;99.90;;;;;;5060359;28;20415;-70
2023/08/25 00:25:08;;;;;;;5.40;2.60;;;19.90;99.90;;;;;;5056505;28;20408;-70
2023/08/25 00:27:34;;;;;;;4.20;2.93;;;19.90;99.90;;;;;;5056909;28;20503;-71
2023/08/25 00:30:00;;;;;;;4.10;2.30;;;19.90;99.90;;;;;;5051112;28;20495;-71
2023/08/25 00:32:25;;;;;;;2.90;2.70;;;19.90;99.90;;;;;;5063378;28;20212;-71
2023/08/25 00:34:51;;;;;;;4.00;2.83;;;19.90;99.90;;;;;;5047570;28;20173;-71
2023/08/25 00:37:17;;;;;;;3.10;2.60;;;19.90;99.90;;;;;;5047131;28;20225;-71
2023/08/25 00:39:43;;;;;;;4.80;3.00;;;19.90;99.90;;;;;;5047251;28;20601;-71
2023/08/25 00:42:08;;;;;;;7.43;3.00;;;19.80;99.90;;;;;;5047632;28;20272;-71
2023/08/25 00:44:34;;;;;;;2.97;2.70;;;19.90;99.90;;;;;;5047043;28;20182;-71
2023/08/25 00:47:00;;;;;;;3.70;3.23;;;19.90;99.90;;;;;;5046509;28;20188;-71
2023/08/25 00:49:27;;;;;;;5.97;3.33;;;20.00;99.90;;;;;;5047110;28;20440;-70
2023/08/25 00:51:53;;;;;;;3.23;2.90;;;20.00;99.90;;;;;;5051177;28;20213;-71
2023/08/25 00:54:21;;;;;;;3.43;3.13;;;20.00;99.90;;;;;;5051360;28;20516;-71
2023/08/25 00:56:49;;;;;;;3.50;3.20;;;20.00;99.90;;;;;;5050324;28;20976;-71
2023/08/25 00:59:16;;;;;;;6.40;3.20;;;20.00;99.90;;;;;;5049547;28;20452;-71
2023/08/25 01:01:45;;;;;;;6.10;3.30;;;20.10;99.90;;;;;;5051048;28;20773;-70
2023/08/25 01:04:12;;;;;;;5.87;3.77;;;20.10;99.90;;;;;;5051364;28;20412;-71
2023/08/25 01:06:38;;;;;;;3.80;3.40;;;20.10;99.90;;;;;;5050159;28;20791;-70
2023/08/25 01:09:05;;;;;;;6.60;3.67;;;20.10;99.90;;;;;;5049398;28;20436;-71
2023/08/25 01:11:55;;;;;;;3.57;3.10;;;20.10;99.90;;;;;;5051083;28;20559;-70
2023/08/25 01:14:40;;;;;;;6.77;3.20;;;20.10;99.90;;;;;;5051065;28;20408;-70
2023/08/25 01:17:26;;;;;;;5.37;3.30;;;20.10;99.90;;;;;;5050427;28;20478;-70
2023/08/25 01:20:00;;;;;;;3.73;3.43;;;20.00;99.90;;;;;;5050851;28;20411;-70
2023/08/25 01:22:51;;;;;;;3.63;3.20;;;20.00;99.90;;;;;;5050879;28;20439;-71
2023/08/25 01:25:29;;;;;;;6.30;3.13;;;20.10;99.90;;;;;;5050537;28;20823;-70
2023/08/25 01:27:59;;;;;;;3.90;3.37;;;20.00;99.90;;;;;;5048475;28;20450;-70
2023/08/25 01:30:27;;;;;;;7.40;3.20;;;20.10;99.90;;;;;;5050169;28;20934;-71
2023/08/25 01:32:54;;;;;;;4.03;2.80;;;20.10;99.90;;;;;;5066008;28;20413;-71
2023/08/25 01:35:34;;;;;;;4.83;3.00;;;20.10;99.90;;;;;;5048953;28;20397;-71
2023/08/25 01:38:07;;;;;;;5.77;3.10;;;20.00;99.90;;;;;;5065472;28;20773;-70
2023/08/25 01:41:02;;;;;;;5.20;3.27;;;20.00;99.90;;;;;;5050805;28;20413;-70
2023/08/25 01:43:34;;;;;;;5.70;3.10;;;20.00;99.90;;;;;;5043327;28;20412;-70
2023/08/25 01:46:00;;;;;;;4.47;3.93;;;20.00;99.90;;;;;;5049954;28;20419;-71
2023/08/25 01:48:29;;;;;;;4.60;3.97;;;19.90;99.90;;;;;;5048904;28;20424;-71
2023/08/25 01:50:55;;;;;;;3.40;3.10;;;19.90;99.90;;;;;;5050270;28;20451;-71
2023/08/25 01:53:21;;;;;;;4.73;3.47;;;19.90;99.90;;;;;;5050758;28;20419;-71
2023/08/25 01:55:49;;;;;;;4.20;3.40;;;19.90;99.90;;;;;;5050251;28;20239;-71
2023/08/25 01:58:15;;;;;;;5.43;3.50;;;19.80;99.90;;;;;;5049861;28;20198;-71
2023/08/25 02:00:41;;;;;;;3.83;3.17;;;19.80;99.90;;;;;;5047518;28;20417;-71
2023/08/25 02:03:06;;;;;;;5.37;3.77;;;19.80;99.90;;;;;;5048822;28;20178;-71
2023/08/25 02:05:32;;;;;;;5.50;3.60;;;19.90;99.90;;;;;;5050085;28;20431;-71
2023/08/25 02:07:58;;;;;;;3.13;2.83;;;19.80;99.90;;;;;;5049094;28;20565;-71
2023/08/25 02:10:23;;;;;;;3.27;2.93;;;19.80;99.90;;;;;;5050096;28;20261;-71
2023/08/25 02:12:49;;;;;;;3.03;2.73;;;19.80;99.90;;;;;;5050251;28;20280;-70
2023/08/25 02:15:15;;;;;;;4.67;3.10;;;19.80;99.90;;;;;;5048190;28;20173;-70
2023/08/25 02:17:40;;;;;;;4.00;3.20;;;19.70;99.90;;;;;;5049235;28;20178;-70
2023/08/25 02:20:07;;;;;;;5.23;3.13;;;19.70;99.90;;;;;;5048349;28;20543;-71
2023/08/25 02:22:33;;;;;;;3.30;3.00;;;19.70;99.90;;;;;;5048753;28;20194;-71
2023/08/25 02:24:59;;;;;;;3.60;3.10;;;19.50;99.90;;;;;;5049657;28;20408;-71
2023/08/25 02:27:25;;;;;;;3.30;2.80;;;19.50;99.90;;;;;;5047928;28;20462;-71
2023/08/25 02:29:51;;;;;;;4.33;3.17;;;19.50;99.90;;;;;;5049252;28;20186;-71
2023/08/25 02:32:17;;;;;;;3.33;2.97;;;19.50;99.90;;;;;;5049151;28;20216;-71
2023/08/25 02:34:42;;;;;;;4.80;3.37;;;19.40;99.90;;;;;;5049095;28;20412;-71
2023/08/25 02:37:08;;;;;;;3.10;2.87;;;19.40;99.90;;;;;;5030882;28;20173;-71
2023/08/25 02:39:34;;;;;;;5.17;3.23;;;19.40;99.90;;;;;;5049023;28;20194;-71
2023/08/25 02:41:59;;;;;;;3.10;2.90;;;19.40;99.90;;;;;;5049406;28;20173;-71
2023/08/25 02:44:25;;;;;;;4.07;3.27;;;19.30;99.90;;;;;;5030851;28;20184;-71
2023/08/25 02:46:51;;;;;;;3.43;3.13;;;19.20;99.90;;;;;;5047358;28;20303;-71
2023/08/25 02:49:16;;;;;;;3.37;3.07;;;19.20;99.90;;;;;;5049093;28;20193;-71
2023/08/25 02:51:42;;;;;;;3.50;3.20;;;19.20;99.90;;;;;;5049061;28;20232;-71
2023/08/25 02:54:08;;;;;;;4.87;3.13;;;19.10;99.90;;;;;;5049109;28;20576;-71
2023/08/25 02:56:33;;;;;;;8.80;4.00;;;19.10;99.90;;;;;;5030158;28;20177;-71
2023/08/25 02:58:59;;;;;;;4.60;3.57;;;19.00;99.90;;;;;;5047966;28;20204;-71
2023/08/25 03:01:25;;;;;;;4.17;3.37;;;19.00;99.90;;;;;;5047557;28;20182;-71
2023/08/25 03:03:51;;;;;;;5.00;3.83;;;19.00;99.90;;;;;;5048930;28;20181;-71
2023/08/25 03:06:17;;;;;;;4.33;3.10;;;19.00;99.90;;;;;;5048445;28;20839;-71
2023/08/25 03:08:45;;;;;;;3.30;3.00;;;18.90;99.90;;;;;;5048004;28;20436;-71
2023/08/25 03:11:10;;;;;;;6.53;3.90;;;18.90;99.90;;;;;;5048841;28;20194;-71
2023/08/25 03:13:36;;;;;;;4.10;3.67;;;18.90;99.90;;;;;;5047436;28;20832;-71
2023/08/25 03:16:02;;;;;;;4.80;4.03;;;18.80;99.90;;;;;;5047341;28;20180;-71
2023/08/25 03:18:28;;;;;;;7.00;4.07;;;18.70;99.90;;;;;;5048242;28;20229;-71
2023/08/25 03:20:54;;;;;;;5.40;3.87;;;18.70;99.90;;;;;;5048608;28;20200;-71
2023/08/25 03:23:20;;;;;;;4.43;4.00;;;18.70;99.90;;;;;;5048643;28;20499;-71
2023/08/25 03:25:46;;;;;;;7.03;4.10;;;18.70;99.90;;;;;;5048244;28;20499;-71
2023/08/25 03:28:12;;;;;;;6.50;4.00;;;18.70;99.90;;;;;;5047958;28;20531;-71
2023/08/25 03:30:37;;;;;;;4.57;3.73;;;18.70;99.90;;;;;;5048545;28;20263;-71
2023/08/25 03:33:06;;;;;;;5.50;4.17;;;18.70;99.90;;;;;;5048537;28;20174;-71
2023/08/25 03:35:35;;;;;;;4.60;4.20;;;18.70;99.90;;;;;;5046670;28;20614;-71
2023/08/25 03:38:02;;;;;;;5.10;4.30;;;18.70;99.90;;;;;;5048126;28;20426;-71
2023/08/25 03:40:27;;;;;;;5.07;4.57;;;18.60;99.90;;;;;;5048463;28;20420;-71
2023/08/25 03:42:54;;;;;;;5.17;4.67;;;18.60;99.90;;;;;;5051714;28;20796;-71
2023/08/25 03:45:20;;;;;;;4.10;3.70;;;18.60;99.90;;;;;;5057296;28;20243;-71
2023/08/25 03:47:46;;;;;;;4.30;3.50;;;18.60;99.90;;;;;;5066830;28;20448;-71
2023/08/25 03:50:11;;;;;;;4.57;3.67;;;18.50;99.90;;;;;;5071628;28;20178;-71
2023/08/25 03:52:37;;;;;;;5.43;3.47;;;18.50;99.90;;;;;;5067660;28;20284;-71
2023/08/25 03:55:04;;;;;;;4.90;4.30;;;18.50;99.90;;;;;;5051859;28;20170;-71
2023/08/25 03:57:30;;;;;;;5.50;3.97;;;18.50;99.90;;;;;;5048452;28;20440;-71
2023/08/25 03:59:55;;;;;;;6.47;4.33;;;18.40;99.90;;;;;;5047451;28;20448;-71
2023/08/25 04:02:21;;;;;;;5.90;4.00;;;18.30;99.90;;;;;;5048452;28;20181;-71
2023/08/25 04:04:47;;;;;;;7.00;4.50;;;18.30;99.90;;;;;;5047967;28;20173;-71
2023/08/25 04:07:15;;;;;;;4.90;4.00;;;18.30;99.90;;;;;;5047272;28;20177;-71
2023/08/25 04:09:41;;;;;;;5.63;5.00;;;18.20;99.90;;;;;;5047818;28;20221;-71
2023/08/25 04:12:07;;;;;;;5.50;4.40;;;18.20;99.90;;;;;;5046164;28;20873;-71
2023/08/25 04:14:34;;;;;;;6.53;4.40;;;18.10;99.90;;;;;;5042707;28;20182;-71
2023/08/25 04:16:59;;;;;;;4.90;4.40;;;18.10;99.90;;;;;;5043790;28;20420;-71
2023/08/25 04:19:25;;;;;;;4.57;4.17;;;18.10;99.90;;;;;;5039798;28;20432;-71
2023/08/25 04:21:51;;;;;;;6.20;5.60;;;18.10;99.90;;;;;;5047784;28;20189;-71
2023/08/25 04:24:17;;;;;;;5.37;4.77;;;18.20;99.90;;;;;;5046508;28;20264;-71
2023/08/25 04:26:43;;;;;;;5.10;4.60;;;18.10;99.90;;;;;;5046901;28;20706;-71
2023/08/25 04:29:09;;;;;;;5.40;4.13;;;18.10;99.90;;;;;;5046971;28;20440;-71
2023/08/25 04:31:36;;;;;;;4.20;3.70;;;18.10;99.90;;;;;;5047230;28;20456;-71
2023/08/25 04:34:02;;;;;;;5.53;3.83;;;18.10;99.90;;;;;;5048152;28;20201;-72
2023/08/25 04:36:27;;;;;;;4.33;3.90;;;18.10;99.90;;;;;;5045823;28;20456;-72
2023/08/25 04:38:53;;;;;;;5.33;3.80;;;18.00;99.90;;;;;;5045895;28;20436;-72
2023/08/25 04:41:19;;;;;;;5.10;4.43;;;18.00;99.90;;;;;;5040493;28;20197;-72
2023/08/25 04:43:45;;;;;;;5.80;4.10;;;17.90;99.90;;;;;;5045890;28;20230;-72
2023/08/25 04:46:12;;;;;;;4.60;4.20;;;17.90;99.90;;;;;;5046956;28;20500;-72
2023/08/25 04:48:38;;;;;;;4.97;4.07;;;17.90;99.90;;;;;;5045051;28;20204;-72
2023/08/25 04:51:04;;;;;;;5.50;4.30;;;17.90;99.90;;;;;;5029316;28;20460;-72
2023/08/25 04:53:30;;;;;;;6.80;5.90;;;17.90;99.90;;;;;;5033639;28;20182;-71
2023/08/25 04:55:55;;;;;;;6.10;5.60;;;17.80;99.90;;;;;;5027121;28;20181;-72
2023/08/25 04:58:21;;;;;;;6.50;5.90;;;17.90;99.90;;;;;;5026872;28;20190;-71
2023/08/25 05:00:52;;;;;;;7.60;6.87;;;17.90;99.90;;;;;;5026487;28;20217;-72
2023/08/25 05:03:18;;;;;;;5.63;5.13;;;17.90;99.90;;;;;;5027747;28;20577;-72
2023/08/25 05:05:44;;;;;;;6.20;5.60;;;17.90;99.90;;;;;;5028180;28;20420;-72
2023/08/25 05:08:09;;;;;;;6.40;5.70;;;17.90;99.90;;;;;;5045027;28;20210;-72
2023/08/25 05:10:35;;;;;;;6.10;5.10;;;17.90;99.90;;;;;;5039504;28;20417;-72
2023/08/25 05:13:01;;;;;;;8.47;5.80;;;17.90;99.90;;;;;;5037934;28;20194;-72
2023/08/25 05:15:26;;;;;;;5.40;4.73;;;17.90;99.90;;;;;;5043743;28;20173;-72
2023/08/25 05:17:52;;;;;;;6.43;5.27;;;17.90;99.90;;;;;;5040266;28;20202;-71
2023/08/25 05:20:20;;;;;;;7.60;6.80;;;18.00;99.90;;;;;;5037454;28;20170;-72
2023/08/25 05:22:46;;;;;;;6.30;5.80;;;18.00;99.90;;;;;;5036522;28;20530;-72
2023/08/25 05:25:12;;;;;;;6.53;5.73;;;18.10;99.90;;;;;;5034056;28;20436;-71
2023/08/25 05:27:38;;;;;;;8.53;5.80;;;18.20;99.90;;;;;;5043730;28;20499;-72
2023/08/25 05:30:05;;;;;;;6.60;5.83;;;18.20;99.90;;;;;;5045137;28;20261;-72
2023/08/25 05:32:31;;;;;;;8.33;5.37;;;18.20;99.90;;;;;;5036542;28;20285;-72
2023/08/25 05:34:57;;;;;;;6.60;5.77;;;18.30;99.90;;;;;;5045712;28;20503;-72
2023/08/25 05:37:22;;;;;;;7.00;6.33;;;18.40;99.90;;;;;;5046383;28;20299;-72
2023/08/25 05:39:49;;;;;;;6.57;5.97;;;18.40;99.90;;;;;;5043728;28;20443;-71
2023/08/25 05:42:15;;;;;;;6.67;5.40;;;18.50;99.90;;;;;;5048924;28;20192;-71
2023/08/25 05:44:41;;;;;;;6.30;5.40;;;18.50;99.90;;;;;;5048778;28;20412;-72
2023/08/25 05:47:06;;;;;;;5.40;4.70;;;18.60;99.90;;;;;;5049043;28;20489;-71
2023/08/25 05:49:32;;;;;;;5.23;4.83;;;18.60;99.90;;;;;;5048927;28;20241;-72
2023/08/25 05:51:58;;;;;;;5.33;4.93;;;18.70;99.90;;;;;;5045265;28;20220;-72
2023/08/25 05:54:23;;;;;;;6.67;5.40;;;18.70;99.90;;;;;;5049742;28;20220;-71
2023/08/25 05:56:49;;;;;;;6.53;5.23;;;18.80;99.90;;;;;;5049164;28;20584;-71
2023/08/25 05:59:15;;;;;;;6.27;5.13;;;18.90;99.90;;;;;;5050052;28;20280;-71
2023/08/25 06:01:41;;;;;;;8.10;5.53;;;19.00;99.90;;;;;;5045063;28;20194;-71
2023/08/25 06:04:07;;;;;;;6.90;6.13;;;19.10;99.90;;;;;;5046800;28;20524;-71
2023/08/25 06:06:33;;;;;;;8.13;6.13;;;19.20;99.90;;;;;;5050185;28;20186;-72
2023/08/25 06:08:59;;;;;;;6.67;5.50;;;19.30;99.90;;;;;;5049643;28;20206;-72
2023/08/25 06:11:25;;;;;;;7.13;6.40;;;19.40;99.90;;;;;;5049658;28;20463;-71
2023/08/25 06:13:50;;;;;;;6.40;5.80;;;19.50;99.90;;;;;;5050172;28;20725;-72
2023/08/25 06:16:16;;;;;;;7.80;6.20;;;19.70;99.90;;;;;;5038155;28;20516;-72
2023/08/25 06:18:42;;;;;;;7.17;5.53;;;19.80;99.90;;;;;;5047335;28;20259;-71
2023/08/25 06:21:09;;;;;;;6.60;5.93;;;19.90;99.90;;;;;;5047909;28;20224;-72
2023/08/25 06:23:35;;;;;;;8.60;6.00;;;20.10;99.90;;;;;;5047419;28;20429;-72
2023/08/25 06:26:00;;;;;;;10.50;7.10;;;20.30;99.90;;;;;;5046473;28;20417;-72
2023/08/25 06:28:26;;;;;;;10.73;6.73;;;20.40;99.90;;;;;;5046906;28;20217;-72
2023/08/25 06:30:52;;;;;;;8.60;7.13;;;20.50;99.90;;;;;;5046100;28;20581;-72
2023/08/25 06:33:17;;;;;;;12.90;6.83;;;20.60;99.90;;;;;;5047645;28;20170;-72
2023/08/25 06:35:43;;;;;;;12.40;6.30;;;20.60;99.90;;;;;;5047019;28;20181;-72
2023/08/25 06:38:09;;;;;;;8.03;6.50;;;20.70;99.90;;;;;;5047199;28;20720;-71
2023/08/25 06:40:35;;;;;;;8.53;6.13;;;20.90;99.90;;;;;;5047839;28;20191;-72
2023/08/25 06:43:01;;;;;;;6.80;5.83;;;21.00;99.90;;;;;;5049306;28;20181;-72
2023/08/25 06:45:30;;;;;;;7.50;5.10;;;21.10;99.90;;;;;;5049178;28;20186;-71
2023/08/25 06:47:57;;;;;;;7.63;4.77;;;21.10;99.90;;;;;;5048376;28;20436;-72
2023/08/25 06:50:23;;;;;;;5.53;5.03;;;21.20;99.90;;;;;;5049607;28;20412;-72
2023/08/25 06:52:49;;;;;;;7.70;5.77;;;21.30;99.90;;;;;;5048667;28;20456;-71
2023/08/25 06:55:18;;;;;;;8.37;5.20;;;21.40;99.90;;;;;;5049203;28;20477;-71
2023/08/25 06:57:46;;;;;;;5.27;4.77;;;21.40;99.90;;;;;;5048453;28;20280;-71
2023/08/25 07:00:13;;;;;;;5.90;4.90;;;21.40;99.90;;;;;;5048911;28;20924;-71
2023/08/25 07:02:41;;;;;;;9.03;5.40;;;21.40;99.90;;;;;;5047807;28;20413;-71
2023/08/25 07:05:07;;;;;;;5.80;4.40;;;21.40;99.90;;;;;;5048094;28;20420;-72
2023/08/25 07:07:35;;;;;;;9.50;5.30;;;21.30;99.90;;;;;;5050118;28;20932;-72
2023/08/25 07:10:01;;;;;;;8.03;5.63;;;21.30;99.90;;;;;;5062849;28;20409;-71
2023/08/25 07:12:26;;;;;;;8.67;5.43;;;21.20;99.90;;;;;;5067395;28;20471;-72
2023/08/25 07:14:53;;;;;;;8.63;4.50;;;21.10;99.90;;;;;;5066186;28;20174;-72
2023/08/25 07:17:19;;;;;;;7.83;4.60;;;21.10;99.90;;;;;;5053894;28;20178;-72
2023/08/25 07:19:45;;;;;;;5.10;4.30;;;21.00;99.90;;;;;;5049516;28;20852;-73
2023/08/25 07:22:11;;;;;;;5.00;4.30;;;21.00;99.90;;;;;;5048846;28;20182;-72
2023/08/25 07:24:36;;;;;;;4.40;4.00;;;20.80;99.90;;;;;;5048613;28;20412;-72
2023/08/25 07:27:02;;;;;;;6.40;4.30;;;20.90;99.90;;;;;;5047762;28;20178;-72
2023/08/25 07:29:28;;;;;;;5.90;4.73;;;20.90;99.90;;;;;;5048455;28;20286;-71
2023/08/25 07:31:53;;;;;;;5.23;4.70;;;20.90;99.90;;;;;;5047909;28;20221;-72
2023/08/25 07:34:19;;;;;;;5.17;4.50;;;20.80;99.90;;;;;;5048216;28;20621;-72
2023/08/25 07:36:45;;;;;;;5.30;4.80;;;20.80;99.90;;;;;;5047314;28;20315;-72
2023/08/25 07:39:11;;;;;;;5.40;4.90;;;20.80;99.90;;;;;;5047691;28;20320;-72
2023/08/25 07:41:37;;;;;;;5.20;4.53;;;20.90;99.90;;;;;;5048264;28;20231;-72
2023/08/25 07:44:03;;;;;;;6.47;5.50;;;20.80;99.90;;;;;;5047808;28;20424;-72
2023/08/25 07:46:29;;;;;;;6.40;5.20;;;20.60;99.90;;;;;;5046230;28;21173;-72
2023/08/25 07:48:55;;;;;;;6.37;5.23;;;20.50;99.90;;;;;;5047757;28;20278;-72
2023/08/25 07:51:21;;;;;;;6.73;6.13;;;20.40;99.90;;;;;;5046741;28;20547;-72
2023/08/25 07:53:46;;;;;;;7.13;6.00;;;20.30;99.90;;;;;;5048008;28;20500;-72
2023/08/25 07:56:13;;;;;;;5.83;5.20;;;20.30;99.90;;;;;;5062847;28;20177;-72
2023/08/25 07:58:38;;;;;;;10.30;5.13;;;20.30;99.90;;;;;;5047030;28;20743;-72
2023/08/25 08:01:04;;;;;;;5.83;5.30;;;20.30;99.90;;;;;;5046994;28;20448;-72
2023/08/25 08:03:31;;;;;;;5.87;5.37;;;20.30;99.90;;;;;;5047648;28;20263;-72
2023/08/25 08:05:57;;;;;;;8.43;5.80;;;20.30;99.90;;;;;;5046331;28;20933;-72
2023/08/25 08:08:22;;;;;;;7.80;6.00;;;20.30;99.90;;;;;;5046542;28;20519;-72
2023/08/25 08:10:48;;;;;;;10.27;8.07;;;20.20;99.90;;;;;;5046668;28;20467;-72
2023/08/25 08:13:14;;;;;;;7.00;5.60;;;20.10;99.90;;;;;;5047413;28;20169;-72
2023/08/25 08:15:39;;;;;;;7.03;5.33;;;20.00;99.90;;;;;;5047535;28;20717;-72
2023/08/25 08:18:05;;;;;;;7.80;5.43;;;20.10;99.90;;;;;;5045751;28;20704;-72
2023/08/25 08:20:33;;;;;;;6.07;5.47;;;20.10;99.90;;;;;;5047475;28;20534;-72
2023/08/25 08:23:00;;;;;;;6.00;5.40;;;20.10;99.90;;;;;;5047600;28;20174;-71
2023/08/25 08:25:26;;;;;;;8.47;6.10;;;20.20;99.90;;;;;;5045767;28;20420;-72
2023/08/25 08:27:51;;;;;;;6.77;5.30;;;20.20;99.90;;;;;;5046986;28;21152;-72
2023/08/25 08:30:19;;;;;;;9.00;6.50;;;20.30;99.90;;;;;;5045388;28;20586;-72
2023/08/25 08:32:46;;;;;;;7.03;5.97;;;20.30;99.90;;;;;;5047416;28;20209;-72
2023/08/25 08:35:12;;;;;;;6.30;5.70;;;20.30;99.90;;;;;;5047076;28;20415;-72
2023/08/25 08:37:39;;;;;;;6.23;5.73;;;20.20;99.90;;;;;;5045053;28;20438;-72
2023/08/25 08:40:06;;;;;;;6.97;5.93;;;20.10;99.90;;;;;;5047432;28;20419;-72
2023/08/25 08:42:36;;;;;;;6.73;6.00;;;19.90;99.90;;;;;;5046879;28;20478;-72
2023/08/25 08:45:07;;;;;;;6.53;5.83;;;19.90;99.90;;;;;;5045983;28;20431;-72
2023/08/25 08:47:34;;;;;;;5.90;5.40;;;19.80;99.90;;;;;;5046507;28;20408;-71
2023/08/25 08:50:00;;;;;;;6.07;4.67;;;19.80;99.90;;;;;;5047433;28;20412;-71
2023/08/25 08:52:29;;;;;;;5.20;4.70;;;19.70;99.90;;;;;;5046984;28;20459;-72
2023/08/25 08:54:58;;;;;;;4.37;3.97;;;19.70;99.90;;;;;;5047049;28;20739;-72
2023/08/25 08:57:25;;;;;;;4.50;3.70;;;19.70;99.90;;;;;;5046536;28;20446;-72
2023/08/25 08:59:54;;;;;;;4.87;4.47;;;19.60;99.90;;;;;;5045780;28;20436;-72
2023/08/25 09:02:20;;;;;;;4.17;3.87;;;19.60;99.90;;;;;;5047136;28;20419;-71
2023/08/25 09:04:50;;;;;;;5.97;4.60;;;19.70;99.90;;;;;;5046907;28;20485;-72
2023/08/25 09:07:17;;;;;;;4.30;4.00;;;19.70;99.90;;;;;;5046529;28;20466;-72
2023/08/25 09:09:45;;;;;;;4.80;4.23;;;19.70;99.90;;;;;;5046952;28;20535;-71
2023/08/25 09:12:13;;;;;;;5.90;4.33;;;19.70;99.90;;;;;;5050910;28;20491;-72
2023/08/25 09:14:39;;;;;;;5.47;4.97;;;19.60;99.90;;;;;;5050409;28;20419;-72
2023/08/25 09:17:07;;;;;;;5.17;4.67;;;19.60;99.90;;;;;;5050576;28;20408;-72
2023/08/25 09:19:34;;;;;;;6.60;6.00;;;19.70;99.90;;;;;;5050389;28;20478;-72
2023/08/25 09:22:01;;;;;;;7.20;6.50;;;19.70;99.90;;;;;;5051099;28;20794;-72
2023/08/25 09:24:28;;;;;;;7.13;6.53;;;19.70;99.90;;;;;;5049084;28;20874;-72
2023/08/25 09:26:54;;;;;;;7.17;6.43;;;19.70;99.90;;;;;;5050074;28;20412;-72
2023/08/25 09:29:22;;;;;;;7.43;6.63;;;19.70;99.90;;;;;;5049737;28;20968;-72
2023/08/25 09:31:48;;;;;;;8.00;7.30;;;19.80;99.90;;;;;;5050539;28;20562;-72
2023/08/25 09:34:14;;;;;;;7.83;7.13;;;19.80;99.90;;;;;;5050654;28;20419;-72
2023/08/25 09:36:54;;;;;;;7.00;6.27;;;19.80;99.90;;;;;;5049523;28;20213;-71
2023/08/25 09:39:21;;;;;;;9.73;7.60;;;19.80;99.90;;;;;;5049932;28;20435;-72
2023/08/25 09:41:48;;;;;;;8.17;7.47;;;19.70;99.90;;;;;;5050678;28;20459;-72
2023/08/25 09:44:15;;;;;;;8.37;7.43;;;19.70;99.90;;;;;;5050342;28;20567;-72
2023/08/25 09:46:42;;;;;;;7.83;7.13;;;19.70;99.90;;;;;;5049468;28;20493;-72
2023/08/25 09:49:17;;;;;;;8.40;7.70;;;19.70;99.90;;;;;;5050150;28;20852;-72
2023/08/25 09:51:48;;;;;;;8.87;7.97;;;19.70;99.90;;;;;;5050074;28;20482;-72
2023/08/25 09:54:16;;;;;;;8.23;7.30;;;19.70;99.90;;;;;;5049987;28;20409;-72
2023/08/25 09:56:45;;;;;;;8.63;7.83;;;19.70;99.90;;;;;;5048174;28;20502;-72
2023/08/25 09:59:13;;;;;;;9.87;8.53;;;19.70;99.90;;;;;;5048870;28;20432;-72
2023/08/25 10:01:44;;;;;;;24.27;10.60;;;19.70;99.90;;;;;;5050123;28;20420;-72
2023/08/25 10:04:10;;;;;;;12.73;8.97;;;19.70;99.90;;;;;;5049800;28;20435;-72
2023/08/25 10:06:38;;;;;;;12.27;7.93;;;19.70;99.90;;;;;;5048073;28;20924;-72
2023/08/25 10:09:05;;;;;;;9.40;8.40;;;19.70;99.90;;;;;;5048391;28;20574;-72
2023/08/25 10:11:52;;;;;;;10.30;8.10;;;19.70;99.90;;;;;;5049995;28;20455;-72
2023/08/25 10:14:23;;;;;;;8.50;7.70;;;19.60;99.90;;;;;;5050055;28;20932;-72
2023/08/25 10:16:51;;;;;;;10.23;8.27;;;19.70;99.90;;;;;;5048056;28;20408;-72
2023/08/25 10:19:26;;;;;;;8.60;7.83;;;19.60;99.90;;;;;;5050156;28;20598;-72
2023/08/25 10:21:53;;;;;;;6.73;6.07;;;19.50;99.90;;;;;;5049140;28;20422;-72
2023/08/25 10:24:20;;;;;;;7.53;6.80;;;19.60;99.90;;;;;;5048628;28;20438;-72
2023/08/25 10:26:47;;;;;;;7.90;7.10;;;19.60;99.90;;;;;;5048925;28;20420;-72
2023/08/25 10:29:19;;;;;;;7.40;6.53;;;19.60;99.90;;;;;;5049426;28;21049;-72
2023/08/25 10:31:46;;;;;;;7.40;6.23;;;19.60;99.90;;;;;;5050162;28;20455;-71
2023/08/25 10:34:34;;;;;;;11.50;8.40;;;19.70;99.90;;;;;;5065395;28;21092;-72
2023/08/25 10:37:11;;;;;;;7.60;4.90;;;19.50;99.90;;;;;;5060556;28;20420;-72
2023/08/25 10:39:52;;;;;;;5.27;4.10;;;19.40;99.90;;;;;;5058149;28;20531;-72
2023/08/25 10:42:27;;;;;;;5.40;4.47;;;19.40;99.90;;;;;;5049780;28;20499;-72
2023/08/25 10:45:17;;;;;;;7.87;4.23;;;19.40;99.90;;;;;;5048082;28;20935;-72
2023/08/25 10:47:47;;;;;;;6.23;3.97;;;19.40;99.90;;;;;;5048267;28;20492;-72
2023/08/25 10:50:18;;;;;;;4.70;4.00;;;19.50;99.90;;;;;;5049382;28;20431;-72
2023/08/25 10:52:47;;;;;;;5.10;4.13;;;19.50;99.90;;;;;;5048783;28;20452;-72
2023/08/25 10:55:29;;;;;;;4.60;3.77;;;19.50;99.90;;;;;;5048604;28;20408;-72
2023/08/25 10:58:06;;;;;;;5.67;3.80;;;19.40;99.90;;;;;;5048423;28;20523;-72
2023/08/25 11:00:35;;;;;;;4.90;3.50;;;19.40;99.90;;;;;;5047589;28;20908;-72
2023/08/25 11:03:02;;;;;;;4.90;4.33;;;19.40;99.90;;;;;;5048737;28;20419;-72
2023/08/25 11:05:31;;;;;;;4.77;3.50;;;19.50;99.90;;;;;;5048253;28;20420;-72
2023/08/25 11:08:04;;;;;;;4.00;3.50;;;19.50;99.90;;;;;;5046834;28;20439;-72
2023/08/25 11:10:34;;;;;;;3.60;3.30;;;19.50;99.90;;;;;;5048470;28;20781;-72
2023/08/25 11:13:01;;;;;;;5.77;3.73;;;19.50;99.90;;;;;;5048776;28;20448;-72
2023/08/25 11:15:27;;;;;;;4.73;2.70;;;19.40;99.90;;;;;;5048089;28;20893;-72
2023/08/25 11:17:53;;;;;;;4.37;3.47;;;19.40;99.90;;;;;;5047914;28;20467;-72
2023/08/25 11:20:19;;;;;;;3.07;2.20;;;19.30;99.90;;;;;;5048404;28;20409;-72
2023/08/25 11:22:52;;;;;;;4.07;2.97;;;19.30;99.90;;;;;;5048585;28;20407;-72
2023/08/25 11:25:18;;;;;;;3.30;2.57;;;19.20;99.90;;;;;;5047882;28;20412;-72
2023/08/25 11:27:48;;;;;;;4.90;2.90;;;19.30;99.90;;;;;;5047674;28;20470;-71
2023/08/25 11:30:15;;;;;;;4.63;3.20;;;19.20;99.90;;;;;;5047222;28;20784;-72
2023/08/25 11:32:41;;;;;;;3.80;2.87;;;19.10;99.90;;;;;;5047042;28;20463;-72
2023/08/25 11:35:09;;;;;;;2.70;2.33;;;19.10;99.90;;;;;;5047449;28;20419;-72
2023/08/25 11:37:35;;;;;;;4.53;2.77;;;19.10;99.90;;;;;;5047473;28;20412;-72
2023/08/25 11:40:00;;;;;;;2.60;2.20;;;19.10;99.90;;;;;;5048506;28;20422;-72
2023/08/25 11:42:26;;;;;;;3.30;2.07;;;19.10;99.90;;;;;;5047886;28;20231;-72
2023/08/25 11:44:52;;;;;;;4.33;1.97;;;19.10;99.90;;;;;;5046812;28;20177;-72
2023/08/25 11:47:21;;;;;;;2.80;2.47;;;19.10;99.90;;;;;;5043681;28;20656;-72
2023/08/25 11:49:48;;;;;;;2.00;1.80;;;19.10;99.90;;;;;;5047452;28;20455;-72
2023/08/25 11:52:15;;;;;;;2.90;1.93;;;19.10;99.90;;;;;;5047142;28;20463;-72
2023/08/25 11:54:48;;;;;;;1.93;1.73;;;19.00;99.90;;;;;;5047264;28;20452;-72
2023/08/25 11:57:14;;;;;;;3.97;2.17;;;19.00;99.90;;;;;;5046832;28;20487;-72
2023/08/25 11:59:45;;;;;;;2.00;1.80;;;19.00;99.90;;;;;;5046297;28;20456;-72
2023/08/25 12:02:15;;;;;;;2.40;2.07;;;19.00;99.90;;;;;;5047323;28;20984;-72
2023/08/25 12:04:55;;;;;;;5.03;2.33;;;19.10;99.90;;;;;;5047100;28;20450;-72
2023/08/25 12:07:24;;;;;;;3.20;1.97;;;19.10;99.90;;;;;;5046612;28;20481;-72
2023/08/25 12:09:56;;;;;;;2.23;1.90;;;19.30;99.90;;;;;;5029619;28;20490;-72
2023/08/25 12:12:23;;;;;;;3.27;1.90;;;19.40;99.90;;;;;;5047119;28;20455;-72
2023/08/25 12:14:53;;;;;;;2.80;2.10;;;19.50;99.90;;;;;;5046958;28;20412;-72
2023/08/25 12:17:26;;;;;;;2.63;2.40;;;19.60;99.90;;;;;;5046620;28;20920;-72
2023/08/25 12:19:53;;;;;;;4.80;1.80;;;19.70;99.90;;;;;;5042695;28;20427;-71
2023/08/25 12:22:19;;;;;;;3.60;2.00;;;19.80;99.90;;;;;;5047359;28;20924;-72
2023/08/25 12:24:46;;;;;;;2.90;1.90;;;19.90;99.90;;;;;;5047249;28;20419;-72
2023/08/25 12:27:12;;;;;;;7.90;2.10;;;20.00;99.90;;;;;;5046167;28;20428;-72
2023/08/25 12:29:38;;;;;;;2.30;2.10;;;19.90;99.90;;;;;;5046521;28;20463;-72
2023/08/25 12:32:04;;;;;;;4.73;2.17;;;19.90;99.90;;;;;;5046677;28;21210;-72
2023/08/25 12:34:30;;;;;;;3.30;1.80;;;19.90;99.90;;;;;;5047507;28;20276;-72
2023/08/25 12:36:56;;;;;;;3.80;1.97;;;20.00;99.90;;;;;;5045024;28;20409;-72
2023/08/25 12:39:23;;;;;;;2.80;2.10;;;20.00;99.90;;;;;;5045945;28;20722;-72
2023/08/25 12:41:49;;;;;;;5.37;1.80;;;20.10;99.90;;;;;;5047234;28;20420;-72
2023/08/25 12:44:14;;;;;;;3.70;2.30;;;20.00;99.90;;;;;;5047047;28;20815;-72
2023/08/25 12:46:42;;;;;;;1.93;1.73;;;20.10;99.90;;;;;;5049381;28;20228;-72